Aérodrome :
LOGIN :

S'inscrire | Disclaimer

   EN    FR    IT 

 










Légende :    VFR   VFR Marginal   IFR   IFR Intensif   IFR Très Intensif
Visi : 
Plafond : 
>= 8 km
>= 3000ft
5 à 8 km
1000 à 3000 ft
1500m à 5 km
500 à 1000 ft
800 à 1500m
200 à 500 ft
< 800m
< 200 ft
Symboles :   Orages  Brouillard  Fortes neiges  Fortes précipitations  Vent > 20 kt
SIGMETs :   Divers  Orages  Givrage  Turbulence  Onde Orograph.  Cendres Volcan.






- Altitude de l'aérodrome : 270 ft
- Code IATA : OXF


EGTK - Oxford (Kidlington)

DERNIER METAR :
  • 031620Z 21002KT 9999 SCT010 SCT025 05/05 Q0978

METARs EXPIRÉS :
  • 031550Z VRB02KT 9000 VCSH SCT006 BKN012 06/05 Q0979
  • 031520Z 00000KT 4500 -RADZ BR FEW006 BKN009 06/05 Q0979
  • 031450Z 19002KT 8000 -SHRA SCT010 BKN015 BKN021 06/05 Q0980
  • 031420Z 19003KT 9999 FEW010 BKN018 06/06 Q0980
  • 031350Z 19005KT 9000 -RA SCT004 OVC010 06/05 Q0981 RERA

TAF AMD TAF EGTK
Valide du 03 à 15h jusqu'au 03 à 23h UTC


031532Z 0315/0323 18004KT 9999 SCT010
TEMPO 0315/0323 7000 RA BKN004
PROB30
TEMPO 0315/0323 4000 RADZ
BECMG 0320/0323 32010KT



MET'MAP, la Météo Aéronautique d'un coup d'oeil ! - Copyright ORBIFLY Décembre 2007 - Disclaimer

ORBIFLY MET'MAP TEAM :

Programmation & Développement : Alexandra Zaïnal
Sur une idée originale de : Baudouin d'Aumeries
Assistance à la programmation : Marc-Olivier Méhu
Soutien technique & logistique : Manuel Goepfert

Contact : metmap@orbifly.com




SOURCES & CREDITS :

   NOAA